Time;durP1;ratioP1;P1;durP2;ratioP2;P2;SDS_P1;SDS_P2;PMS_P1;PMS_P2;Temp;Humidity;BMP_temperature;BMP_pressure;BME280_temperature;BME280_humidity;BME280_pressure;Samples;Min_cycle;Max_cycle;Signal;HPM_P1;HPM_P2
2022/02/27 00:01:58;;;;;;;25.42;10.30;;;;;;;3.73;79.28;103190.34;5029963;28;20047;-47
2022/02/27 00:04:26;;;;;;;21.83;10.32;;;;;;;3.70;79.08;103186.13;5033836;28;20053;-45
2022/02/27 00:06:54;;;;;;;23.20;9.65;;;;;;;3.66;78.90;103194.75;5018700;28;20493;-45
2022/02/27 00:09:21;;;;;;;24.13;9.40;;;;;;;3.67;78.82;103194.56;5014172;28;20046;-42
2022/02/27 00:11:49;;;;;;;25.30;9.77;;;;;;;3.64;79.33;103194.91;5014156;28;20053;-46
2022/02/27 00:14:17;;;;;;;23.75;9.27;;;;;;;3.61;79.34;103196.06;5014297;28;20054;-46
2022/02/27 00:16:44;;;;;;;21.65;8.93;;;;;;;3.60;79.30;103190.81;5024867;28;20108;-45
2022/02/27 00:19:14;;;;;;;21.13;9.05;;;;;;;3.55;79.54;103195.88;5014049;28;20125;-46
2022/02/27 00:21:42;;;;;;;24.33;9.13;;;;;;;3.51;79.05;103191.81;5012871;28;20129;-45
2022/02/27 00:24:11;;;;;;;21.63;8.75;;;;;;;3.51;79.46;103194.50;5013738;28;20042;-47
2022/02/27 00:26:39;;;;;;;18.90;8.13;;;;;;;3.52;80.13;103190.81;5014465;28;20044;-45
2022/02/27 00:29:08;;;;;;;19.33;7.95;;;;;;;3.55;79.78;103196.72;5031216;28;20136;-43
2022/02/27 00:31:36;;;;;;;22.52;8.50;;;;;;;3.53;79.31;103190.63;5048621;28;20033;-45
2022/02/27 00:34:04;;;;;;;23.50;8.35;;;;;;;3.58;79.85;103191.00;5033259;28;20496;-47
2022/02/27 00:36:31;;;;;;;21.75;8.55;;;;;;;3.63;78.97;103201.28;5032577;28;20056;-46
2022/02/27 00:39:00;;;;;;;19.95;8.57;;;;;;;3.62;78.53;103202.28;5033145;28;20045;-41
2022/02/27 00:41:28;;;;;;;22.98;8.73;;;;;;;3.57;78.64;103200.09;5016616;28;20404;-45
2022/02/27 00:43:57;;;;;;;23.05;8.70;;;;;;;3.51;78.89;103202.59;5013847;28;20058;-45
2022/02/27 00:46:25;;;;;;;20.15;8.13;;;;;;;3.47;79.69;103199.38;5018506;28;20034;-46
2022/02/27 00:48:53;;;;;;;18.30;8.00;;;;;;;3.50;79.38;103198.22;5014718;28;20111;-47
2022/02/27 00:51:23;;;;;;;20.58;7.90;;;;;;;3.51;78.67;103195.38;5013333;28;20092;-47
2022/02/27 00:53:51;;;;;;;19.83;7.60;;;;;;;3.49;78.63;103193.81;5014401;28;20056;-46
2022/02/27 00:56:18;;;;;;;21.60;8.30;;;;;;;3.45;79.65;103195.16;5011977;28;20125;-45
2022/02/27 00:58:50;;;;;;;18.75;8.05;;;;;;;3.48;79.11;103194.81;5026223;28;20038;-44
2022/02/27 01:01:21;;;;;;;18.48;7.90;;;;;;;3.48;79.17;103194.81;5013333;28;20487;-46
2022/02/27 01:03:49;;;;;;;20.42;8.02;;;;;;;3.50;79.05;103187.44;5013218;28;20469;-44
2022/02/27 01:06:16;;;;;;;20.65;7.60;;;;;;;3.51;79.18;103184.59;5012727;28;20038;-45
2022/02/27 01:08:44;;;;;;;19.73;6.88;;;;;;;3.48;78.20;103194.81;5012715;28;20042;-44
2022/02/27 01:11:12;;;;;;;20.52;6.85;;;;;;;3.46;79.61;103191.44;5006591;28;20136;-47
2022/02/27 01:13:39;;;;;;;18.05;7.10;;;;;;;3.48;78.91;103189.44;5012927;28;20564;-46
2022/02/27 01:16:09;;;;;;;21.75;8.43;;;;;;;3.51;79.48;103183.72;5012850;28;20045;-44
2022/02/27 01:18:36;;;;;;;17.67;7.35;;;;;;;3.49;78.87;103181.19;5020598;28;20392;-45
2022/02/27 01:21:05;;;;;;;21.80;7.88;;;;;;;3.44;77.99;103185.38;5013038;28;20053;-48
2022/02/27 01:23:33;;;;;;;20.92;7.72;;;;;;;3.38;79.29;103174.25;5011907;28;20046;-46
2022/02/27 01:26:00;;;;;;;16.52;7.13;;;;;;;3.36;79.08;103175.41;5012806;28;20046;-47
2022/02/27 01:28:28;;;;;;;25.52;8.88;;;;;;;3.32;79.25;103174.91;5013870;28;20034;-46
2022/02/27 01:30:57;;;;;;;18.73;7.07;;;;;;;3.33;78.99;103173.03;5023963;28;20066;-45
2022/02/27 01:33:24;;;;;;;19.08;7.57;;;;;;;3.32;79.03;103177.59;5025329;28;20072;-47
2022/02/27 01:35:52;;;;;;;18.15;7.43;;;;;;;3.28;78.79;103168.13;5013985;28;20042;-46
2022/02/27 01:38:20;;;;;;;18.60;7.25;;;;;;;3.27;79.77;103171.84;5011996;28;20044;-47
2022/02/27 01:40:47;;;;;;;19.65;7.45;;;;;;;3.29;79.48;103169.81;5026566;28;20089;-44
2022/02/27 01:43:15;;;;;;;18.55;7.80;;;;;;;3.25;79.20;103168.47;5012109;28;20088;-47
2022/02/27 01:45:43;;;;;;;17.27;7.20;;;;;;;3.22;79.54;103171.47;5028159;28;20069;-46
2022/02/27 01:48:10;;;;;;;17.80;7.30;;;;;;;3.22;79.15;103174.16;5011546;28;20196;-45
2022/02/27 01:50:39;;;;;;;18.88;7.35;;;;;;;3.15;79.34;103171.28;5025785;28;20049;-44
2022/02/27 01:53:07;;;;;;;18.35;6.93;;;;;;;3.08;79.08;103172.06;5032484;28;20045;-46
2022/02/27 01:55:35;;;;;;;15.77;7.13;;;;;;;3.03;79.82;103167.19;5030659;28;20041;-46
2022/02/27 01:58:03;;;;;;;20.55;7.18;;;;;;;3.07;80.04;103165.84;5030891;28;20049;-45
2022/02/27 02:00:31;;;;;;;20.42;7.57;;;;;;;3.10;79.98;103168.22;5023314;28;20057;-46
2022/02/27 02:03:01;;;;;;;19.30;7.50;;;;;;;3.09;79.49;103163.84;5011596;28;20496;-47
2022/02/27 02:05:30;;;;;;;22.10;7.30;;;;;;;3.08;79.82;103166.69;5011088;28;20504;-44
2022/02/27 02:08:03;;;;;;;19.70;6.82;;;;;;;3.03;79.81;103169.00;5024896;28;20400;-47
2022/02/27 02:10:32;;;;;;;19.02;6.97;;;;;;;2.95;79.47;103164.44;5026942;28;20056;-46
2022/02/27 02:13:04;;;;;;;18.33;6.70;;;;;;;2.88;79.89;103161.53;5011307;28;20405;-46
2022/02/27 02:15:31;;;;;;;17.75;6.97;;;;;;;2.87;79.83;103157.16;5011335;28;20483;-45
2022/02/27 02:18:00;;;;;;;19.20;6.93;;;;;;;2.87;80.86;103165.22;5012367;28;20401;-46
2022/02/27 02:20:28;;;;;;;20.00;7.70;;;;;;;2.91;80.73;103161.22;5016788;28;20045;-45
2022/02/27 02:22:58;;;;;;;20.00;6.97;;;;;;;2.99;80.32;103165.81;5016799;28;20038;-46
2022/02/27 02:25:25;;;;;;;19.92;6.82;;;;;;;3.00;80.72;103159.41;5034549;28;20100;-47
2022/02/27 02:27:54;;;;;;;20.80;6.70;;;;;;;3.05;80.32;103162.47;5030493;28;20045;-46
2022/02/27 02:30:22;;;;;;;17.35;6.43;;;;;;;3.03;80.13;103163.63;5014851;28;20042;-46
2022/02/27 02:32:56;;;;;;;18.92;7.13;;;;;;;3.08;79.77;103158.59;5016234;28;20404;-46
2022/02/27 02:35:26;;;;;;;21.77;7.38;;;;;;;3.04;79.00;103159.94;5014921;28;20065;-45
2022/02/27 02:37:54;;;;;;;16.65;6.18;;;;;;;3.00;79.70;103151.31;5015976;28;20112;-43
2022/02/27 02:40:23;;;;;;;20.58;6.78;;;;;;;2.97;79.22;103149.78;5018279;28;20446;-45
2022/02/27 02:42:52;;;;;;;17.42;6.53;;;;;;;2.96;79.31;103150.81;5034355;28;20136;-46
2022/02/27 02:45:20;;;;;;;18.65;6.35;;;;;;;2.89;79.60;103152.47;5033264;28;20061;-45
2022/02/27 02:47:50;;;;;;;18.55;7.03;;;;;;;2.87;79.67;103149.06;5034188;28;20431;-46
2022/02/27 02:50:20;;;;;;;19.15;6.80;;;;;;;2.87;79.61;103149.06;5013415;28;20515;-47
2022/02/27 02:52:48;;;;;;;17.45;6.85;;;;;;;2.78;79.57;103145.47;5014302;28;20054;-44
2022/02/27 02:55:17;;;;;;;19.35;6.97;;;;;;;2.74;80.20;103138.75;5013816;28;20037;-45
2022/02/27 02:57:45;;;;;;;21.13;7.18;;;;;;;2.74;80.59;103143.25;5026399;28;20041;-42
2022/02/27 03:00:14;;;;;;;16.48;6.75;;;;;;;2.75;80.49;103142.28;5024433;28;20080;-47
2022/02/27 03:02:42;;;;;;;19.42;6.97;;;;;;;2.76;80.22;103141.25;5015169;28;20521;-46
2022/02/27 03:05:10;;;;;;;16.60;6.05;;;;;;;2.77;80.41;103140.28;5015446;28;20085;-45
2022/02/27 03:07:39;;;;;;;16.17;5.90;;;;;;;2.78;80.20;103139.25;5015049;28;20481;-46
2022/02/27 03:10:08;;;;;;;17.15;6.43;;;;;;;2.78;80.28;103141.94;5021175;28;20579;-45
2022/02/27 03:12:36;;;;;;;16.95;6.43;;;;;;;2.80;80.26;103137.25;5034949;28;20484;-46
2022/02/27 03:15:06;;;;;;;19.63;6.30;;;;;;;2.82;79.91;103140.63;5034568;28;20030;-45
2022/02/27 03:17:34;;;;;;;17.55;5.95;;;;;;;2.79;79.90;103130.19;5033486;28;20076;-45
2022/02/27 03:20:02;;;;;;;15.18;6.03;;;;;;;2.73;79.50;103137.03;5032386;28;20120;-46
2022/02/27 03:22:30;;;;;;;15.52;6.15;;;;;;;2.68;80.20;103123.22;5032401;28;20045;-48
2022/02/27 03:24:57;;;;;;;17.25;6.97;;;;;;;2.71;80.19;103127.44;5034712;28;20194;-45
2022/02/27 03:27:25;;;;;;;16.70;5.85;;;;;;;2.75;79.91;103120.75;5034396;28;20049;-49
2022/02/27 03:29:53;;;;;;;20.05;6.43;;;;;;;2.81;80.45;103120.09;5034292;28;20064;-47
2022/02/27 03:32:21;;;;;;;17.90;6.82;;;;;;;2.86;79.56;103125.88;5019439;28;20551;-47
2022/02/27 03:34:49;;;;;;;13.70;6.30;;;;;;;2.87;79.53;103114.06;5024095;28;20056;-46
2022/02/27 03:37:18;;;;;;;17.70;6.00;;;;;;;2.86;79.19;103119.59;5034400;28;20065;-47
2022/02/27 03:39:46;;;;;;;17.48;7.25;;;;;;;2.86;79.26;103115.09;5034480;28;20423;-44
2022/02/27 03:42:14;;;;;;;20.38;6.75;;;;;;;2.83;78.63;103115.38;5024525;28;20085;-48
2022/02/27 03:44:42;;;;;;;16.95;6.90;;;;;;;2.79;79.33;103114.03;5014693;28;20050;-42
2022/02/27 03:47:10;;;;;;;15.90;6.35;;;;;;;2.80;79.41;103120.25;5014256;28;20526;-47
2022/02/27 03:49:37;;;;;;;18.48;6.35;;;;;;;2.81;79.15;103108.47;5029500;28;20128;-46
2022/02/27 03:52:05;;;;;;;17.77;6.25;;;;;;;2.79;79.41;103114.03;5033003;28;20447;-46
2022/02/27 03:54:33;;;;;;;18.52;6.60;;;;;;;2.78;79.02;103107.78;5023482;28;20060;-46
2022/02/27 03:57:00;;;;;;;15.93;6.45;;;;;;;2.77;79.34;103105.28;5013117;28;20137;-48
2022/02/27 03:59:28;;;;;;;20.45;6.97;;;;;;;2.79;79.45;103108.66;5022069;28;20108;-47
2022/02/27 04:01:56;;;;;;;16.20;6.25;;;;;;;2.81;79.05;103108.47;5033940;28;20077;-46
2022/02/27 04:04:23;;;;;;;16.48;5.75;;;;;;;2.87;78.95;103110.53;5033964;28;20045;-46
2022/02/27 04:06:51;;;;;;;17.13;6.63;;;;;;;2.87;79.38;103105.16;5033922;28;20038;-45
2022/02/27 04:09:20;;;;;;;16.80;5.90;;;;;;;2.86;78.88;103109.72;5028691;28;20112;-46
2022/02/27 04:11:47;;;;;;;17.67;5.90;;;;;;;2.83;78.63;103109.16;5015255;28;20048;-45
2022/02/27 04:14:15;;;;;;;16.08;5.85;;;;;;;2.81;78.25;103101.25;5013928;28;20040;-46
2022/02/27 04:16:43;;;;;;;18.48;6.57;;;;;;;2.83;78.49;103103.78;5014089;28;20042;-45
2022/02/27 04:19:10;;;;;;;17.02;6.38;;;;;;;2.77;78.77;103106.13;5013597;28;20042;-55
2022/02/27 04:21:38;;;;;;;14.52;5.50;;;;;;;2.73;78.76;103104.72;5031803;28;20115;-44
2022/02/27 04:24:06;;;;;;;16.27;6.00;;;;;;;2.76;78.87;103111.66;5031557;28;20145;-43
2022/02/27 04:26:33;;;;;;;20.00;6.35;;;;;;;2.76;79.17;103107.09;5033185;28;20060;-46
2022/02/27 04:29:01;;;;;;;15.65;6.05;;;;;;;2.76;78.71;103109.78;5029564;28;20069;-46
2022/02/27 04:31:29;;;;;;;14.43;5.70;;;;;;;2.75;79.01;103105.44;5014078;28;20132;-44
2022/02/27 04:33:56;;;;;;;15.18;5.93;;;;;;;2.76;78.99;103106.25;5013863;28;20042;-45
2022/02/27 04:36:24;;;;;;;15.30;5.72;;;;;;;2.81;79.14;103109.31;5012306;28;20046;-46
2022/02/27 04:38:52;;;;;;;12.77;5.40;;;;;;;2.83;78.78;103104.63;5023321;28;20053;-45
2022/02/27 04:41:20;;;;;;;17.13;6.15;;;;;;;2.83;78.59;103104.63;5032895;28;20089;-44
2022/02/27 04:43:49;;;;;;;17.70;6.20;;;;;;;2.75;78.29;103096.50;5033205;28;20508;-45
2022/02/27 04:46:16;;;;;;;19.85;5.85;;;;;;;2.68;78.62;103096.31;5015830;28;20045;-45
2022/02/27 04:48:44;;;;;;;14.80;5.53;;;;;;;2.64;79.66;103105.69;5031614;28;20052;-47
2022/02/27 04:51:12;;;;;;;15.00;5.40;;;;;;;2.69;79.54;103102.53;5014752;28;20453;-45
2022/02/27 04:53:40;;;;;;;14.88;5.65;;;;;;;2.73;79.29;103104.72;5013340;28;20041;-46
2022/02/27 04:56:08;;;;;;;17.50;5.88;;;;;;;2.71;78.44;103101.34;5011842;28;20077;-45
2022/02/27 04:58:35;;;;;;;18.23;5.95;;;;;;;2.58;78.49;103108.19;5013851;28;20077;-46
2022/02/27 05:01:03;;;;;;;17.45;5.70;;;;;;;2.48;78.93;103101.06;5013196;28;20034;-47
2022/02/27 05:03:31;;;;;;;18.85;6.10;;;;;;;2.43;79.45;103103.38;5012710;28;20125;-45
2022/02/27 05:05:59;;;;;;;16.90;6.00;;;;;;;2.40;80.04;103098.28;5013129;28;20045;-45
2022/02/27 05:08:26;;;;;;;13.93;5.82;;;;;;;2.41;80.24;103094.63;5013862;28;20042;-46
2022/02/27 05:10:54;;;;;;;16.70;6.00;;;;;;;2.47;80.70;103093.13;5026188;28;20512;-45
2022/02/27 05:13:22;;;;;;;13.50;5.13;;;;;;;2.55;80.21;103091.34;5012853;28;20552;-44
2022/02/27 05:15:49;;;;;;;14.35;5.68;;;;;;;2.61;79.74;103083.66;5011848;28;20045;-45
2022/02/27 05:18:18;;;;;;;15.27;6.07;;;;;;;2.62;79.55;103088.88;5011804;28;20042;-47
2022/02/27 05:20:45;;;;;;;15.95;5.63;;;;;;;2.63;79.24;103087.03;5032271;28;20128;-46
2022/02/27 05:23:17;;;;;;;17.75;5.68;;;;;;;2.58;79.32;103086.66;5030739;28;20033;-46
2022/02/27 05:25:45;;;;;;;18.20;5.68;;;;;;;2.58;79.68;103084.81;5032687;28;20491;-46
2022/02/27 05:28:12;;;;;;;17.02;5.95;;;;;;;2.59;79.39;103091.03;5031655;28;20403;-46
2022/02/27 05:30:40;;;;;;;16.45;5.80;;;;;;;2.59;79.52;103094.56;5014202;28;20128;-45
2022/02/27 05:33:13;;;;;;;15.73;5.55;;;;;;;2.53;79.06;103087.13;5012858;28;20042;-45
2022/02/27 05:35:41;;;;;;;18.85;5.53;;;;;;;2.49;79.41;103097.34;5013904;28;20053;-45
2022/02/27 05:38:08;;;;;;;13.80;5.68;;;;;;;2.48;79.82;103095.69;5013551;28;20045;-46
2022/02/27 05:40:36;;;;;;;12.68;4.88;;;;;;;2.53;79.95;103096.03;5032394;28;20057;-47
2022/02/27 05:43:04;;;;;;;16.70;6.07;;;;;;;2.58;79.97;103086.66;5032105;28;20068;-46
2022/02/27 05:45:31;;;;;;;15.27;5.15;;;;;;;2.56;79.67;103093.03;5032419;28;20052;-47
2022/02/27 05:47:59;;;;;;;14.95;5.75;;;;;;;2.60;79.73;103092.69;5031036;28;20544;-46
2022/02/27 05:50:30;;;;;;;15.90;5.38;;;;;;;2.62;79.44;103090.69;5030597;28;20045;-44
2022/02/27 05:52:57;;;;;;;19.98;5.95;;;;;;;2.60;79.16;103092.69;5033587;28;20488;-46
2022/02/27 05:55:25;;;;;;;13.57;5.65;;;;;;;2.53;79.53;103092.53;5036840;28;20128;-48
2022/02/27 05:57:53;;;;;;;15.32;5.85;;;;;;;2.48;79.45;103095.69;5039430;28;20048;-43
2022/02/27 06:00:20;;;;;;;15.15;5.35;;;;;;;2.38;79.67;103094.91;5033213;28;20048;-45
2022/02/27 06:02:48;;;;;;;14.65;5.28;;;;;;;2.36;79.91;103091.56;5036342;28;20037;-46
2022/02/27 06:05:16;;;;;;;16.75;5.68;;;;;;;2.34;80.23;103099.78;5036265;28;20510;-43
2022/02/27 06:07:44;;;;;;;18.77;5.63;;;;;;;2.35;80.40;103100.63;5028286;28;20049;-48
2022/02/27 06:10:12;;;;;;;16.30;5.22;;;;;;;2.37;80.23;103101.31;5018816;28;20038;-47
2022/02/27 06:12:47;;;;;;;14.73;5.43;;;;;;;2.34;80.00;103104.31;5023096;28;20046;-46
2022/02/27 06:15:18;;;;;;;13.00;5.25;;;;;;;2.32;80.34;103100.94;5027959;28;20040;-47
2022/02/27 06:17:46;;;;;;;15.05;5.30;;;;;;;2.35;79.97;103100.63;5022006;28;20046;-46
2022/02/27 06:20:14;;;;;;;15.73;5.25;;;;;;;2.31;80.14;103097.41;5028291;28;20140;-47
2022/02/27 06:22:42;;;;;;;14.40;5.25;;;;;;;2.30;80.25;103102.94;5025675;28;20471;-47
2022/02/27 06:25:12;;;;;;;16.00;5.22;;;;;;;2.29;79.92;103101.25;5026586;28;20459;-44
2022/02/27 06:27:42;;;;;;;14.73;5.20;;;;;;;2.22;79.76;103100.19;5026247;28;20107;-48
2022/02/27 06:30:15;;;;;;;16.42;5.25;;;;;;;2.20;80.44;103097.66;5015604;28;20046;-45
2022/02/27 06:32:44;;;;;;;15.32;5.15;;;;;;;2.20;80.36;103099.50;5030120;28;20417;-45
2022/02/27 06:35:12;;;;;;;14.10;4.93;;;;;;;2.22;80.18;103105.56;5023571;28;20069;-48
2022/02/27 06:37:40;;;;;;;14.00;5.05;;;;;;;2.23;80.40;103107.25;5024519;28;20469;-47
2022/02/27 06:40:08;;;;;;;13.02;4.57;;;;;;;2.28;80.21;103110.31;5025972;28;20053;-47
2022/02/27 06:42:37;;;;;;;13.93;4.93;;;;;;;2.23;79.77;103104.56;5033797;28;20132;-48
2022/02/27 06:45:07;;;;;;;12.75;4.82;;;;;;;2.22;80.27;103105.56;5035143;28;20428;-45
2022/02/27 06:47:35;;;;;;;13.43;4.95;;;;;;;2.22;80.22;103105.56;5023476;28;20100;-47
2022/02/27 06:50:04;;;;;;;16.00;5.00;;;;;;;2.17;80.03;103114.09;5033013;28;20034;-46
2022/02/27 06:52:33;;;;;;;16.38;5.70;;;;;;;2.20;80.12;103113.78;5028225;28;20075;-47
2022/02/27 06:55:00;;;;;;;14.60;4.90;;;;;;;2.15;80.14;103115.28;5015303;28;20042;-46
2022/02/27 06:57:28;;;;;;;13.50;4.60;;;;;;;2.15;80.50;103121.47;5016245;28;20046;-47
2022/02/27 06:59:56;;;;;;;11.27;4.30;;;;;;;2.23;80.92;103124.22;5026864;28;20037;-48
2022/02/27 07:02:24;;;;;;;13.40;4.80;;;;;;;2.27;79.81;103127.47;5034250;28;20048;-47
2022/02/27 07:04:52;;;;;;;12.20;4.82;;;;;;;2.31;79.73;103123.47;5034053;28;20076;-48
2022/02/27 07:07:19;;;;;;;15.05;4.90;;;;;;;2.31;80.53;103126.16;5024710;28;20038;-47
2022/02/27 07:09:47;;;;;;;14.23;5.45;;;;;;;2.29;79.65;103117.41;5020282;28;20116;-43
2022/02/27 07:12:16;;;;;;;12.48;4.72;;;;;;;2.28;79.77;103129.16;5034721;28;20470;-45
2022/02/27 07:14:43;;;;;;;11.95;4.57;;;;;;;2.31;79.97;103118.09;5030250;28;20041;-50
2022/02/27 07:17:12;;;;;;;12.60;4.40;;;;;;;2.39;79.39;103112.75;5020265;28;20046;-47
2022/02/27 07:19:39;;;;;;;13.57;5.00;;;;;;;2.31;79.73;103118.94;5027229;28;20052;-42
2022/02/27 07:22:07;;;;;;;12.75;4.43;;;;;;;2.36;79.85;103118.47;5013524;28;20053;-46
2022/02/27 07:24:35;;;;;;;12.85;5.03;;;;;;;2.33;79.51;103116.06;5021105;28;20404;-48
2022/02/27 07:27:03;;;;;;;13.05;4.85;;;;;;;2.37;81.22;103119.31;5023086;28;20050;-49
2022/02/27 07:29:31;;;;;;;11.70;4.78;;;;;;;2.36;79.61;103115.78;5014838;28;20046;-44
2022/02/27 07:32:00;;;;;;;13.50;4.60;;;;;;;2.38;79.26;103113.75;5028433;28;20046;-49
2022/02/27 07:34:27;;;;;;;12.20;4.20;;;;;;;2.42;79.80;103109.75;5017453;28;20433;-44
2022/02/27 07:36:56;;;;;;;13.43;5.05;;;;;;;2.53;80.22;103112.19;5018260;28;20060;-43
2022/02/27 07:39:25;;;;;;;15.20;5.05;;;;;;;2.58;78.66;103110.88;5014989;28;20056;-43
2022/02/27 07:41:54;;;;;;;15.15;5.05;;;;;;;2.60;78.90;103114.22;5032546;28;20045;-47
2022/02/27 07:44:26;;;;;;;13.73;4.80;;;;;;;2.69;78.87;103115.97;5032612;28;20567;-46
2022/02/27 07:46:54;;;;;;;12.75;4.93;;;;;;;2.69;79.21;103116.81;5028549;28;20116;-46
2022/02/27 07:49:24;;;;;;;12.32;4.50;;;;;;;2.69;78.42;103110.59;5018954;28;20033;-45
2022/02/27 07:51:53;;;;;;;16.27;4.97;;;;;;;2.70;78.64;103110.44;5031003;28;20132;-46
2022/02/27 07:54:21;;;;;;;17.58;5.40;;;;;;;2.78;78.50;103105.09;5032564;28;20041;-44
2022/02/27 07:56:48;;;;;;;16.38;4.95;;;;;;;2.77;78.93;103106.13;5026496;28;20049;-42
2022/02/27 07:59:17;;;;;;;17.92;5.25;;;;;;;2.85;79.41;103118.78;5017934;28;20037;-41
2022/02/27 08:01:44;;;;;;;12.38;4.53;;;;;;;2.82;77.61;103113.72;5033696;28;20045;-42
2022/02/27 08:04:13;;;;;;;15.05;5.03;;;;;;;2.83;77.93;103114.56;5031898;28;20025;-42
2022/02/27 08:06:41;;;;;;;14.48;5.25;;;;;;;2.73;78.09;103115.50;5028293;28;20485;-45
2022/02/27 08:09:10;;;;;;;16.17;4.55;;;;;;;2.76;77.79;103119.72;5014944;28;20034;-43
2022/02/27 08:11:38;;;;;;;16.00;5.57;;;;;;;2.76;78.34;103115.19;5020283;28;20069;-46
2022/02/27 08:14:10;;;;;;;16.35;5.32;;;;;;;2.74;78.22;103119.03;5032224;28;20053;-45
2022/02/27 08:16:37;;;;;;;16.45;5.78;;;;;;;2.75;78.14;103118.88;5023198;28;20048;-41
2022/02/27 08:19:06;;;;;;;13.32;5.07;;;;;;;2.80;77.62;103121.09;5020531;28;20373;-43
2022/02/27 08:21:34;;;;;;;16.20;5.25;;;;;;;2.84;77.43;103127.88;5022317;28;20515;-48
2022/02/27 08:24:01;;;;;;;12.82;5.00;;;;;;;2.87;77.64;103127.53;5014355;28;20066;-47
2022/02/27 08:26:29;;;;;;;15.60;5.32;;;;;;;2.86;77.30;103125.00;5024205;28;20124;-47
2022/02/27 08:28:57;;;;;;;15.50;5.03;;;;;;;2.86;77.62;103125.88;5019443;28;20070;-46
2022/02/27 08:31:24;;;;;;;18.13;6.03;;;;;;;2.94;78.09;103125.88;5014378;28;20144;-47
2022/02/27 08:33:52;;;;;;;13.18;5.05;;;;;;;2.96;77.00;103131.97;5013140;28;20626;-43
2022/02/27 08:36:20;;;;;;;13.70;5.40;;;;;;;2.99;77.14;103123.56;5014459;28;20408;-47
2022/02/27 08:38:47;;;;;;;13.65;5.25;;;;;;;3.09;76.64;103133.38;5013345;28;20038;-48
2022/02/27 08:41:15;;;;;;;13.60;5.18;;;;;;;3.14;76.45;103134.56;5013434;28;20080;-46
2022/02/27 08:43:43;;;;;;;18.48;5.85;;;;;;;3.28;76.61;103137.66;5013446;28;20058;-46
2022/02/27 08:46:11;;;;;;;12.82;5.15;;;;;;;3.40;76.29;103144.44;5023221;28;20077;-48
2022/02/27 08:48:40;;;;;;;12.95;5.28;;;;;;;3.37;74.93;103139.38;5033384;28;20459;-46
2022/02/27 08:51:08;;;;;;;15.07;5.30;;;;;;;3.34;75.59;103135.16;5033394;28;20045;-47
2022/02/27 08:53:36;;;;;;;15.30;5.53;;;;;;;3.40;75.55;103139.88;5033204;28;20045;-47
2022/02/27 08:56:04;;;;;;;13.35;4.43;;;;;;;3.37;75.39;103142.91;5025451;28;20125;-45
2022/02/27 08:58:31;;;;;;;14.85;5.63;;;;;;;3.42;75.99;103143.28;5012488;28;20052;-46
2022/02/27 09:00:59;;;;;;;14.60;5.53;;;;;;;3.45;75.45;103142.09;5013182;28;20041;-47
2022/02/27 09:03:28;;;;;;;16.60;6.50;;;;;;;3.57;76.52;103139.94;5012926;28;20050;-46
2022/02/27 09:05:55;;;;;;;19.25;5.82;;;;;;;3.68;76.04;103142.34;5013772;28;20560;-46
2022/02/27 09:08:23;;;;;;;13.65;5.07;;;;;;;3.68;74.56;103139.66;5012054;28;20167;-44
2022/02/27 09:10:50;;;;;;;15.88;5.28;;;;;;;3.68;74.23;103139.66;5012934;28;20048;-46
2022/02/27 09:13:18;;;;;;;12.63;4.97;;;;;;;3.69;74.01;103138.63;5012842;28;20046;-47
2022/02/27 09:15:48;;;;;;;16.10;5.18;;;;;;;3.73;74.54;103145.38;5013973;28;20050;-47
2022/02/27 09:18:20;;;;;;;17.30;5.95;;;;;;;3.86;76.15;103144.91;5012887;28;20096;-46
2022/02/27 09:20:49;;;;;;;13.20;5.18;;;;;;;3.90;74.10;103140.88;5012863;28;20054;-46
2022/02/27 09:23:17;;;;;;;15.60;5.35;;;;;;;3.89;74.24;103143.72;5012950;28;20096;-46
2022/02/27 09:25:45;;;;;;;13.75;5.43;;;;;;;3.91;74.05;103147.94;5024219;28;20041;-46
2022/02/27 09:28:33;;;;;;;12.68;4.88;;;;;;;3.98;71.78;103126.53;5032089;28;20041;-49
2022/02/27 09:31:00;;;;;;;13.40;4.65;;;;;;;3.97;71.51;103132.94;5032508;28;20045;-46
2022/02/27 09:33:30;;;;;;;11.35;4.70;;;;;;;3.96;72.24;103139.34;5032464;28;20044;-49
2022/02/27 09:35:58;;;;;;;13.88;5.18;;;;;;;4.03;72.80;103138.50;5020857;28;20046;-46
2022/02/27 09:38:25;;;;;;;15.95;5.45;;;;;;;4.05;72.84;103138.34;5011400;28;20139;-48
2022/02/27 09:40:53;;;;;;;14.88;5.00;;;;;;;4.10;72.11;103130.59;5012461;28;20046;-46
2022/02/27 09:43:21;;;;;;;14.50;4.72;;;;;;;4.09;71.47;103130.75;4994824;28;20085;-45
2022/02/27 09:45:50;;;;;;;13.02;4.85;;;;;;;4.20;72.20;103130.44;5026878;28;20052;-47
2022/02/27 09:48:18;;;;;;;13.73;4.63;;;;;;;4.21;71.09;103132.09;5032357;28;20038;-48
2022/02/27 09:50:49;;;;;;;14.48;4.60;;;;;;;4.30;71.37;103125.69;5032373;28;20449;-43
2022/02/27 09:53:16;;;;;;;11.77;4.78;;;;;;;4.29;70.08;103129.41;5031263;28;20041;-46
2022/02/27 09:55:45;;;;;;;10.52;4.63;;;;;;;4.31;70.82;103129.25;5020345;28;20122;-46
2022/02/27 09:58:12;;;;;;;14.35;4.95;;;;;;;4.37;69.73;103120.47;5012438;28;20050;-45
2022/02/27 10:00:40;;;;;;;10.70;4.40;;;;;;;4.41;69.79;103121.81;5011414;28;20084;-45
2022/02/27 10:03:13;;;;;;;10.70;4.82;;;;;;;4.45;70.05;103117.78;5012319;28;20043;-44
2022/02/27 10:05:45;;;;;;;10.00;4.38;;;;;;;4.51;70.44;103127.03;5027788;28;20211;-42
2022/02/27 10:08:15;;;;;;;12.50;4.40;;;;;;;4.49;69.89;103114.53;5031071;28;20052;-47
2022/02/27 10:10:57;;;;;;;11.40;4.68;;;;;;;4.57;71.57;103115.53;5032077;28;20045;-48
2022/02/27 10:13:35;;;;;;;12.13;4.60;;;;;;;4.63;70.35;103120.28;5030808;28;20416;-46
2022/02/27 10:16:27;;;;;;;13.13;4.60;;;;;;;4.62;70.40;103107.81;5030533;28;20216;-45
2022/02/27 10:19:00;;;;;;;11.05;4.10;;;;;;;4.61;69.63;103106.94;5032180;28;20069;-46
2022/02/27 10:21:34;;;;;;;11.20;4.82;;;;;;;4.68;68.59;103099.00;5030756;28;20044;-48
2022/02/27 10:24:21;;;;;;;16.40;4.72;;;;;;;4.74;67.99;103100.16;5024116;28;20041;-46
2022/02/27 10:26:51;;;;;;;13.43;4.60;;;;;;;4.72;66.41;103100.34;5011851;28;20042;-47
2022/02/27 10:29:24;;;;;;;12.52;4.82;;;;;;;4.82;68.80;103092.88;5012102;28;20050;-47
2022/02/27 10:31:58;;;;;;;13.98;4.57;;;;;;;4.87;68.63;103095.06;5011214;28;20045;-46
2022/02/27 10:34:34;;;;;;;10.43;4.40;;;;;;;4.89;69.21;103098.44;5016041;28;20045;-46
2022/02/27 10:37:10;;;;;;;10.55;4.95;;;;;;;4.89;69.02;103084.94;5031500;28;20041;-47
2022/02/27 10:39:46;;;;;;;13.02;5.22;;;;;;;5.05;66.34;103086.69;5032367;28;20053;-48
2022/02/27 10:42:16;;;;;;;12.38;4.82;;;;;;;5.08;69.29;103089.91;5035007;28;20038;-48
2022/02/27 10:44:57;;;;;;;11.00;4.40;;;;;;;5.06;68.55;103089.25;5032361;28;20037;-48
2022/02/27 10:47:27;;;;;;;12.02;4.70;;;;;;;5.07;66.95;103085.50;5034011;28;20116;-47
2022/02/27 10:49:56;;;;;;;13.13;4.75;;;;;;;5.22;66.24;103082.06;5035230;28;20041;-47
2022/02/27 10:52:24;;;;;;;10.07;4.28;;;;;;;5.22;68.38;103076.66;5034284;28;20091;-45
2022/02/27 10:54:54;;;;;;;9.65;4.07;;;;;;;5.24;65.42;103082.75;5035634;28;20095;-45
2022/02/27 10:57:29;;;;;;;11.32;4.13;;;;;;;5.22;63.79;103087.47;5033493;28;20056;-44
2022/02/27 11:00:06;;;;;;;13.32;4.45;;;;;;;5.28;67.45;103082.22;5034123;28;20103;-47
2022/02/27 11:02:34;;;;;;;11.20;4.45;;;;;;;5.28;64.96;103081.38;5033964;28;20038;-46
2022/02/27 11:05:03;;;;;;;10.25;4.07;;;;;;;5.27;64.97;103079.72;5035083;28;20100;-47
2022/02/27 11:07:30;;;;;;;10.30;4.47;;;;;;;5.28;65.45;103076.81;5033687;28;20045;-46
2022/02/27 11:09:58;;;;;;;11.57;4.40;;;;;;;5.29;64.44;103083.91;5033606;28;20064;-46
2022/02/27 11:12:26;;;;;;;10.38;4.10;;;;;;;5.31;64.45;103078.31;5014721;28;20052;-47
2022/02/27 11:14:54;;;;;;;13.10;5.00;;;;;;;5.39;65.28;103088.22;5015174;28;20049;-48
2022/02/27 11:17:23;;;;;;;19.52;4.63;;;;;;;5.44;63.85;103073.19;5014941;28;20042;-45
2022/02/27 11:19:51;;;;;;;12.30;4.25;;;;;;;5.48;61.94;103073.66;5015247;28;20048;-48
2022/02/27 11:22:19;;;;;;;9.30;3.80;;;;;;;5.50;62.01;103074.31;5013368;28;20038;-47
2022/02/27 11:24:48;;;;;;;7.55;3.55;;;;;;;5.49;62.79;103067.25;5025025;28;20053;-48
2022/02/27 11:27:16;;;;;;;10.40;4.47;;;;;;;5.46;61.86;103062.16;5013281;28;20129;-42
2022/02/27 11:29:48;;;;;;;8.38;3.85;;;;;;;5.45;62.51;103055.94;5013552;28;20112;-45
2022/02/27 11:32:16;;;;;;;12.35;4.65;;;;;;;5.50;62.96;103048.13;5026278;28;20065;-45